Terminal Aerodrome Forecast
Issued by NWS

Home | Current Version | Previous Version | Text Only | Print | Product List | Glossary On
Versions: 1 2 3 4 5 6 7 8 9 10 11 12 13 14 15 16 17 18 19 20 21 22 23 24 25 26
000
FTUS46 KMTR 020902 AAA
TAFSFO
TAF AMD
KSFO 020902Z 0209/0312 29005KT P6SM SKC
     FM021000 19004KT P6SM FEW020
      TEMPO 0213/0216 BKN015
     FM022000 28015KT P6SM SCT200
     FM030400 28010KT P6SM BKN150
     FM030900 28005KT P6SM BKN150=

USA.gov is the U.S. government's official web portal to all federal, state and local government web resources and services.